Time;durP1;ratioP1;P1;durP2;ratioP2;P2;SDS_P1;SDS_P2;PMS_P1;PMS_P2;Temp;Humidity;BMP_temperature;BMP_pressure;BME280_temperature;BME280_humidity;BME280_pressure;Samples;Min_cycle;Max_cycle;Signal;HPM_P1;HPM_P2
2022/06/03 00:00:40;;;;;;;4.50;4.10;;;;;;;14.41;76.37;101845.19;5233586;28;20063;-68
2022/06/03 00:03:37;;;;;;;5.22;4.72;;;;;;;14.34;77.80;101845.69;5233714;28;20113;-68
2022/06/03 00:06:30;;;;;;;5.15;4.47;;;;;;;14.27;77.07;101841.91;5232391;28;20025;-68
2022/06/03 00:09:04;;;;;;;;;;;;;;;14.60;73.35;101843.50;5232940;28;20056;-68
2022/06/03 00:12:03;;;;;;;5.53;4.60;;;;;;;14.17;78.55;101840.16;5231976;28;19913;-68
2022/06/03 00:14:41;;;;;;;5.43;4.40;;;;;;;13.99;80.19;101842.56;5230615;28;20032;-69
2022/06/03 00:17:23;;;;;;;5.78;4.88;;;;;;;14.04;79.72;101837.72;5233115;28;20930;-68
2022/06/03 00:20:00;;;;;;;6.72;4.47;;;;;;;13.94;81.86;101842.09;5233347;28;20029;-68
2022/06/03 00:22:42;;;;;;;6.00;5.10;;;;;;;13.97;81.42;101840.03;5232542;28;20435;-68
2022/06/03 00:25:38;;;;;;;8.27;5.00;;;;;;;13.96;81.24;101842.81;5233226;28;20116;-68
2022/06/03 00:28:35;;;;;;;6.18;5.28;;;;;;;13.78;82.43;101839.88;5232790;28;20052;-69
2022/06/03 00:31:19;;;;;;;6.32;4.93;;;;;;;14.02;80.57;101834.41;5232138;28;20108;-68
2022/06/03 00:34:24;;;;;;;7.60;5.05;;;;;;;13.92;83.00;101838.75;5232918;28;20048;-67
2022/06/03 00:37:22;;;;;;;4.97;4.47;;;;;;;13.95;82.26;101843.78;5232893;28;20392;-69
2022/06/03 00:40:05;;;;;;;5.70;4.95;;;;;;;13.81;82.95;101842.28;5231826;28;20033;-68
2022/06/03 00:42:39;;;;;;;5.75;4.72;;;;;;;13.73;82.63;101839.44;5224817;28;20083;-68
2022/06/03 00:45:28;;;;;;;5.80;4.60;;;;;;;13.82;82.83;101836.88;5233167;28;20159;-68
2022/06/03 00:48:44;;;;;;;6.63;4.65;;;;;;;13.88;82.59;101839.00;5231508;28;20064;-68
2022/06/03 00:51:30;;;;;;;7.30;4.95;;;;;;;13.57;83.93;101839.88;5215316;28;20048;-68
2022/06/03 00:54:19;;;;;;;6.60;4.75;;;;;;;13.81;81.77;101831.75;5232439;28;20542;-68
2022/06/03 00:57:25;;;;;;;5.28;4.78;;;;;;;13.79;82.52;101834.50;5231782;28;20033;-68
2022/06/03 01:00:15;;;;;;;6.50;4.57;;;;;;;13.73;83.11;101829.75;5234912;28;20021;-69
2022/06/03 01:03:43;;;;;;;5.55;5.03;;;;;;;13.73;82.69;101834.19;5234432;28;20067;-68
2022/06/03 01:06:22;;;;;;;5.53;4.85;;;;;;;13.59;84.60;101833.50;5180401;28;20040;-69
2022/06/03 01:09:00;;;;;;;7.10;4.95;;;;;;;13.53;86.33;101822.66;5181648;28;20054;-68
2022/06/03 01:11:47;;;;;;;5.75;4.78;;;;;;;13.63;84.94;101829.66;5216004;28;20049;-68
2022/06/03 01:14:45;;;;;;;5.78;4.65;;;;;;;13.75;83.41;101816.44;5234266;28;20037;-68
2022/06/03 01:17:46;;;;;;;5.13;4.63;;;;;;;13.61;83.57;101801.78;5235983;28;20033;-69
2022/06/03 01:20:44;;;;;;;4.85;4.32;;;;;;;13.70;84.67;101821.25;5236496;28;20495;-68
2022/06/03 01:23:39;;;;;;;6.43;4.97;;;;;;;13.61;85.87;101817.59;5235602;28;20036;-68
2022/06/03 01:26:13;;;;;;;5.63;4.72;;;;;;;13.48;86.85;101804.56;5235337;28;20029;-68
2022/06/03 01:29:12;;;;;;;5.38;4.82;;;;;;;13.59;87.20;101801.06;5234688;28;20060;-69
2022/06/03 01:32:22;;;;;;;6.20;4.25;;;;;;;13.65;85.43;101792.69;5235393;28;20043;-68
2022/06/03 01:35:15;;;;;;;5.20;4.70;;;;;;;13.51;87.47;101803.50;5235685;28;20048;-68
2022/06/03 01:37:56;;;;;;;5.63;4.83;;;;;;;13.58;87.01;101805.50;5235396;28;20037;-68
2022/06/03 01:41:15;;;;;;;5.90;4.75;;;;;;;13.68;85.52;101800.31;5234801;28;20041;-68
2022/06/03 01:44:10;;;;;;;5.25;4.80;;;;;;;13.61;85.79;101788.63;5203782;28;20045;-69
2022/06/03 01:47:11;;;;;;;5.18;4.68;;;;;;;13.61;85.51;101788.63;5234727;28;20112;-68
2022/06/03 01:49:51;;;;;;;6.78;5.38;;;;;;;13.48;86.90;101793.22;5235690;28;20063;-68
2022/06/03 01:52:52;;;;;;;6.85;5.20;;;;;;;13.54;86.33;101795.34;5235740;28;20040;-68
2022/06/03 01:56:00;;;;;;;6.05;5.05;;;;;;;13.51;86.24;101790.34;5199315;28;20549;-69
2022/06/03 01:58:43;;;;;;;5.93;5.30;;;;;;;13.45;86.56;101782.94;5233839;28;20063;-69
2022/06/03 02:01:45;;;;;;;5.18;4.68;;;;;;;13.46;86.42;101785.47;5233217;28;20028;-69
2022/06/03 02:04:29;;;;;;;5.32;4.70;;;;;;;13.44;87.82;101789.16;5226320;28;20025;-69
2022/06/03 02:07:33;;;;;;;7.65;5.05;;;;;;;13.50;87.06;101788.69;5234170;28;20036;-69
2022/06/03 02:10:21;;;;;;;;;;;;;;;13.81;82.78;101774.63;5234946;28;20132;-68
2022/06/03 02:13:34;;;;;;;5.28;4.78;;;;;;;13.38;86.55;101767.66;5234757;28;19917;-68
2022/06/03 02:16:39;;;;;;;7.22;5.35;;;;;;;13.32;87.40;101762.88;5234557;28;20048;-68
2022/06/03 02:19:31;;;;;;;5.80;4.88;;;;;;;13.22;89.89;101775.13;5234651;28;20087;-68
2022/06/03 02:22:21;;;;;;;6.30;5.10;;;;;;;13.24;88.57;101786.38;5233994;28;20040;-69
2022/06/03 02:25:18;;;;;;;5.65;5.10;;;;;;;13.11;89.83;101775.97;5234855;28;20029;-68
2022/06/03 02:28:17;;;;;;;5.45;4.88;;;;;;;13.18;89.83;101780.72;5234565;28;20025;-69
2022/06/03 02:31:00;;;;;;;5.35;4.85;;;;;;;13.00;91.60;101778.63;5233682;28;20037;-69
2022/06/03 02:33:50;;;;;;;5.88;5.28;;;;;;;13.18;90.04;101776.28;5231728;28;20029;-69
2022/06/03 02:36:33;;;;;;;5.43;4.93;;;;;;;12.98;92.83;101777.91;5234578;28;20389;-68
2022/06/03 02:40:00;;;;;;;6.22;4.78;;;;;;;13.19;90.27;101775.34;5233670;28;20507;-68
2022/06/03 02:42:56;;;;;;;6.40;5.45;;;;;;;13.01;91.07;101775.03;5171601;28;20034;-69
2022/06/03 02:46:02;;;;;;;5.25;4.75;;;;;;;13.15;89.38;101764.25;5235113;28;20029;-68
2022/06/03 02:49:08;;;;;;;6.25;5.65;;;;;;;13.09;90.88;101767.34;5224294;28;20056;-68
2022/06/03 02:52:12;;;;;;;6.90;5.15;;;;;;;13.13;89.58;101757.41;5234447;28;20029;-68
2022/06/03 02:55:25;;;;;;;8.23;5.70;;;;;;;13.12;91.08;101761.03;5233227;28;20052;-68
2022/06/03 02:58:02;;;;;;;6.22;5.63;;;;;;;12.86;93.15;101763.09;5233456;28;20591;-69
2022/06/03 03:00:54;;;;;;;7.85;5.50;;;;;;;12.98;92.56;101767.38;5234331;28;20068;-68
2022/06/03 03:03:37;;;;;;;7.47;5.45;;;;;;;12.81;93.60;101760.03;5234349;28;20025;-67
2022/06/03 03:06:45;;;;;;;6.93;5.63;;;;;;;12.97;91.59;101760.47;5232618;28;20104;-69
2022/06/03 03:09:53;;;;;;;5.85;5.35;;;;;;;12.80;93.63;101763.59;5233766;28;20045;-69
2022/06/03 03:12:58;;;;;;;5.85;5.35;;;;;;;12.87;92.62;101765.59;5234206;28;20025;-67
2022/06/03 03:15:38;;;;;;;6.75;6.15;;;;;;;12.77;94.13;101761.22;5233351;28;20037;-69
2022/06/03 03:18:18;;;;;;;6.20;5.35;;;;;;;12.74;95.99;101743.88;5233309;28;20489;-69
2022/06/03 03:21:25;;;;;;;6.93;5.80;;;;;;;12.83;94.27;101747.56;5232469;28;20025;-68
2022/06/03 03:24:34;;;;;;;6.38;5.78;;;;;;;12.88;95.04;101754.16;5234240;28;20473;-69
2022/06/03 03:27:44;;;;;;;6.68;5.97;;;;;;;12.81;95.72;101750.34;5233599;28;20029;-68
2022/06/03 03:30:28;;;;;;;6.15;5.57;;;;;;;12.70;96.20;101745.09;5234118;28;20049;-68
2022/06/03 03:33:20;;;;;;;7.43;5.80;;;;;;;12.76;94.70;101739.31;5232350;28;20052;-69
2022/06/03 03:36:09;;;;;;;6.78;5.68;;;;;;;12.73;95.88;101733.47;5233842;28;20476;-69
2022/06/03 03:38:55;;;;;;;5.82;5.22;;;;;;;12.74;95.17;101728.13;5226001;28;20095;-68
2022/06/03 03:41:40;;;;;;;8.27;6.47;;;;;;;12.62;96.92;101734.34;5232259;28;20489;-69
2022/06/03 03:44:22;;;;;;;7.80;6.13;;;;;;;12.53;96.83;101733.28;5233518;28;20435;-67
2022/06/03 03:47:15;;;;;;;8.35;6.22;;;;;;;12.75;95.38;101737.66;5233281;28;20036;-68
2022/06/03 03:50:03;;;;;;;6.68;6.07;;;;;;;12.61;96.79;101741.41;5232760;28;20037;-68
2022/06/03 03:52:40;;;;;;;7.07;5.90;;;;;;;12.50;97.99;101738.78;5233386;28;20393;-68
2022/06/03 03:55:51;;;;;;;6.18;5.57;;;;;;;12.76;96.81;101738.50;5233255;28;20033;-68
2022/06/03 03:58:35;;;;;;;6.97;6.20;;;;;;;12.48;97.88;101739.84;5232706;28;20504;-68
2022/06/03 04:01:47;;;;;;;8.00;6.25;;;;;;;12.65;98.05;101742.84;5231410;28;20108;-69
2022/06/03 04:04:49;;;;;;;7.50;6.30;;;;;;;12.58;98.68;101727.66;5233066;28;20029;-69
2022/06/03 04:07:45;;;;;;;7.97;6.00;;;;;;;12.51;100.00;101731.75;5231946;28;20040;-69
2022/06/03 04:10:47;;;;;;;6.55;5.95;;;;;;;12.60;100.00;101725.75;5231201;28;20765;-69
2022/06/03 04:13:56;;;;;;;7.35;6.25;;;;;;;12.60;100.00;101728.38;5233274;28;20091;-69
2022/06/03 04:16:48;;;;;;;9.15;6.70;;;;;;;12.52;100.00;101715.00;5233252;28;20496;-69
2022/06/03 04:19:53;;;;;;;10.50;6.75;;;;;;;12.60;100.00;101726.56;5233295;28;20021;-69
2022/06/03 04:23:14;;;;;;;6.85;5.93;;;;;;;12.72;100.00;101726.56;5234325;28;20044;-68
2022/06/03 04:26:07;;;;;;;7.28;6.57;;;;;;;12.69;99.66;101726.78;5225781;28;20045;-68
2022/06/03 04:29:07;;;;;;;8.37;6.47;;;;;;;12.71;100.00;101715.22;5233084;28;20044;-68
2022/06/03 04:32:03;;;;;;;7.28;6.43;;;;;;;12.67;100.00;101705.91;5225313;28;20026;-68
2022/06/03 04:34:49;;;;;;;7.63;6.30;;;;;;;12.65;100.00;101713.91;5237052;28;20033;-69
2022/06/03 04:37:29;;;;;;;9.13;6.68;;;;;;;12.64;100.00;101714.84;5235514;28;20029;-69
2022/06/03 04:40:22;;;;;;;6.95;6.35;;;;;;;12.68;100.00;101725.13;5237111;28;20476;-68
2022/06/03 04:43:14;;;;;;;7.07;6.38;;;;;;;12.82;100.00;101733.59;5230183;28;20400;-68
2022/06/03 04:46:14;;;;;;;8.32;6.30;;;;;;;12.78;100.00;101736.59;5236334;28;20021;-68
2022/06/03 04:49:26;;;;;;;7.50;6.65;;;;;;;12.94;99.78;101736.19;5236516;28;20041;-69
2022/06/03 04:53:06;;;;;;;8.43;6.13;;;;;;;13.07;98.75;101739.53;5236593;28;20024;-68
2022/06/03 04:55:43;;;;;;;8.65;6.75;;;;;;;12.91;99.53;101743.34;5172506;28;20518;-68
2022/06/03 04:58:45;;;;;;;7.38;6.53;;;;;;;13.03;99.79;101743.34;5171868;28;20038;-67
2022/06/03 05:02:08;;;;;;;7.70;6.50;;;;;;;13.15;98.43;101724.78;5221611;28;20451;-69
2022/06/03 05:05:16;;;;;;;7.70;6.90;;;;;;;13.14;98.21;101732.78;5194526;28;20051;-68
2022/06/03 05:08:27;;;;;;;7.90;7.10;;;;;;;13.23;98.30;101725.94;5235988;28;20052;-68
2022/06/03 05:11:26;;;;;;;7.95;7.15;;;;;;;13.24;98.39;101727.63;5236652;28;20136;-69
2022/06/03 05:14:30;;;;;;;8.38;7.47;;;;;;;13.28;98.19;101729.06;5236543;28;20033;-69
2022/06/03 05:17:20;;;;;;;7.38;6.70;;;;;;;13.36;97.55;101730.09;5203740;28;20183;-68
2022/06/03 05:20:10;;;;;;;8.20;7.40;;;;;;;13.41;97.35;101728.88;5234866;28;20456;-69
2022/06/03 05:22:56;;;;;;;7.45;6.68;;;;;;;13.43;96.98;101722.53;5209252;28;20043;-69
2022/06/03 05:25:50;;;;;;;8.20;6.82;;;;;;;13.55;96.41;101721.50;5235634;28;20060;-68
2022/06/03 05:28:40;;;;;;;7.78;6.97;;;;;;;13.75;96.83;101727.75;5235481;28;20353;-70
2022/06/03 05:31:45;;;;;;;9.02;6.93;;;;;;;13.69;94.60;101716.91;5234268;28;20491;-70
2022/06/03 05:34:42;;;;;;;7.53;6.82;;;;;;;13.91;93.64;101710.66;5235568;28;20025;-69
2022/06/03 05:37:26;;;;;;;7.47;6.72;;;;;;;13.80;94.14;101715.03;5235991;28;20501;-70
2022/06/03 05:40:02;;;;;;;7.90;7.10;;;;;;;13.98;94.62;101722.31;5234639;28;20029;-70
2022/06/03 05:42:36;;;;;;;7.55;6.40;;;;;;;14.04;93.08;101716.53;5228042;28;20029;-69
2022/06/03 05:45:19;;;;;;;8.50;7.60;;;;;;;14.17;93.36;101721.56;5233758;28;20030;-69
2022/06/03 05:48:06;;;;;;;9.13;7.22;;;;;;;14.20;90.60;101716.88;5234256;28;20112;-67
2022/06/03 05:50:46;;;;;;;7.80;7.00;;;;;;;14.28;90.54;101709.16;5235981;28;20076;-68
2022/06/03 05:53:52;;;;;;;8.35;6.28;;;;;;;14.54;90.63;101711.34;5236125;28;20097;-69
2022/06/03 05:56:24;;;;;;;7.70;6.57;;;;;;;14.50;90.04;101717.84;5235124;28;20473;-68
2022/06/03 05:59:46;;;;;;;8.15;6.60;;;;;;;14.75;88.26;101722.63;5235198;28;20022;-69
2022/06/03 06:02:46;;;;;;;7.30;6.38;;;;;;;14.84;88.91;101718.34;5191769;28;20029;-68
2022/06/03 06:05:51;;;;;;;7.65;6.88;;;;;;;15.00;86.23;101720.44;5233843;28;20124;-68
2022/06/03 06:08:45;;;;;;;8.15;6.25;;;;;;;15.14;86.33;101722.69;5232681;28;20517;-68
2022/06/03 06:11:35;;;;;;;9.77;6.03;;;;;;;15.30;86.86;101722.97;5233507;28;20144;-67
2022/06/03 06:14:25;;;;;;;8.10;7.30;;;;;;;15.33;84.08;101717.41;5234820;28;20435;-67
2022/06/03 06:17:05;;;;;;;7.15;6.55;;;;;;;15.41;83.55;101718.50;5235383;28;20017;-67
2022/06/03 06:19:52;;;;;;;9.55;6.82;;;;;;;15.68;84.20;101723.94;5234819;28;20021;-67
2022/06/03 06:22:29;;;;;;;9.07;6.68;;;;;;;15.66;82.13;101728.53;5234278;28;20484;-67
2022/06/03 06:25:14;;;;;;;7.05;6.32;;;;;;;15.89;81.63;101733.47;5234939;28;20014;-68
2022/06/03 06:28:01;;;;;;;8.20;7.40;;;;;;;16.00;81.53;101722.75;5234499;28;20435;-67
2022/06/03 06:30:50;;;;;;;7.60;6.80;;;;;;;16.25;80.36;101719.44;5234338;28;20029;-67
2022/06/03 06:33:52;;;;;;;9.20;6.65;;;;;;;16.50;77.46;101717.09;5217309;28;20026;-68
2022/06/03 06:36:51;;;;;;;7.20;6.38;;;;;;;16.58;75.96;101719.81;5233847;28;20021;-67
2022/06/03 06:39:36;;;;;;;7.40;6.30;;;;;;;16.70;76.83;101718.63;5233136;28;20048;-67
2022/06/03 06:42:25;;;;;;;7.88;6.10;;;;;;;16.85;72.32;101716.34;5234789;28;20064;-68
2022/06/03 06:45:21;;;;;;;6.82;5.60;;;;;;;16.99;72.87;101715.84;5234738;28;20104;-67
2022/06/03 06:48:27;;;;;;;6.82;5.70;;;;;;;17.29;72.10;101718.25;5207478;28;20048;-68
2022/06/03 06:51:09;;;;;;;5.47;4.93;;;;;;;17.32;71.25;101715.31;5228925;28;20091;-67
2022/06/03 06:53:51;;;;;;;8.73;5.28;;;;;;;17.57;67.51;101714.50;5233231;28;20380;-68
2022/06/03 06:56:38;;;;;;;6.93;5.70;;;;;;;17.57;65.49;101714.50;5233239;28;20093;-67
2022/06/03 06:59:27;;;;;;;6.78;5.85;;;;;;;17.84;66.66;101712.72;5234198;28;20025;-67
2022/06/03 07:02:12;;;;;;;5.80;5.15;;;;;;;17.83;67.54;101711.88;5234474;28;20020;-67
2022/06/03 07:04:58;;;;;;;7.60;5.65;;;;;;;18.05;63.41;101721.13;5226266;28;20083;-68
2022/06/03 07:07:40;;;;;;;7.13;5.35;;;;;;;18.06;63.50;101704.22;5233323;28;20049;-68
2022/06/03 07:10:19;;;;;;;6.32;5.32;;;;;;;18.17;62.76;101713.72;5193062;28;20078;-68
2022/06/03 07:13:18;;;;;;;9.00;5.15;;;;;;;18.48;63.13;101711.38;5191911;28;20034;-69
2022/06/03 07:19:48;;;;;;;5.63;4.97;;;;;;;18.75;59.82;101696.19;5192386;28;20034;-69
2022/06/03 07:22:30;;;;;;;5.95;5.25;;;;;;;18.75;60.40;101697.03;5190056;28;20113;-68
2022/06/03 07:25:33;;;;;;;7.55;5.20;;;;;;;19.07;58.97;101698.09;5192444;28;20022;-68
2022/06/03 07:28:45;;;;;;;5.82;5.20;;;;;;;19.07;58.74;101696.25;5191123;28;20026;-68
2022/06/03 07:31:24;;;;;;;8.18;5.28;;;;;;;19.19;58.84;101697.59;5157231;28;20049;-68
2022/06/03 07:34:03;;;;;;;6.20;5.60;;;;;;;19.49;59.23;101699.75;5191117;28;20286;-68
2022/06/03 07:36:41;;;;;;;8.32;5.57;;;;;;;19.50;56.47;101707.53;5191424;28;20022;-69
2022/06/03 07:39:39;;;;;;;8.85;5.47;;;;;;;19.76;56.22;101696.72;5191240;28;20085;-68
2022/06/03 07:42:17;;;;;;;6.53;5.47;;;;;;;19.59;53.58;101701.22;5191706;28;20026;-68
2022/06/03 07:45:22;;;;;;;7.15;5.13;;;;;;;19.82;54.82;101696.06;5190402;28;20030;-68
2022/06/03 07:47:57;;;;;;;9.68;5.22;;;;;;;19.82;55.35;101689.91;5191812;28;20136;-69
2022/06/03 07:50:33;;;;;;;6.63;5.65;;;;;;;19.75;54.68;101688.94;5192787;28;20038;-69
2022/06/03 07:53:17;;;;;;;7.32;5.63;;;;;;;19.97;54.48;101696.19;5191326;28;20030;-69
2022/06/03 07:55:54;;;;;;;7.13;6.05;;;;;;;20.01;54.46;101705.50;5185112;28;20046;-68
2022/06/03 07:58:30;;;;;;;8.68;5.38;;;;;;;20.28;52.30;101709.53;5188127;28;20026;-69
2022/06/03 08:01:02;;;;;;;6.57;5.85;;;;;;;20.25;54.37;101698.41;5188532;28;20201;-69
2022/06/03 08:03:36;;;;;;;6.00;5.27;;;;;;;20.57;52.18;101695.63;5190534;28;20537;-68
2022/06/03 08:06:08;;;;;;;6.60;5.90;;;;;;;20.75;53.80;101690.00;5191884;28;20023;-69
2022/06/03 08:11:40;;;;;;;7.93;5.70;;;;;;;20.81;50.57;101684.00;5216181;28;20042;-69
2022/06/03 08:14:11;;;;;;;6.50;5.90;;;;;;;20.96;51.31;101680.56;5215562;28;20378;-69
2022/06/03 08:16:44;;;;;;;7.67;6.50;;;;;;;21.06;51.78;101663.34;5213539;28;20060;-69
2022/06/03 08:19:18;;;;;;;9.57;7.70;;;;;;;21.21;51.61;101651.88;5214738;28;20029;-69
2022/06/03 08:21:55;;;;;;;7.18;6.47;;;;;;;21.22;50.84;101657.03;5213377;28;20488;-68
2022/06/03 08:24:31;;;;;;;7.40;6.70;;;;;;;21.41;50.85;101661.06;5215746;28;20096;-68
2022/06/03 08:27:13;;;;;;;7.43;6.72;;;;;;;21.39;51.88;101652.41;5215761;28;20033;-68
2022/06/03 08:29:55;;;;;;;7.45;6.72;;;;;;;21.46;54.14;101661.31;5205582;28;20044;-69
2022/06/03 08:32:44;;;;;;;7.27;6.57;;;;;;;21.58;51.45;101654.53;5214436;28;20040;-69
2022/06/03 08:35:19;;;;;;;10.45;6.88;;;;;;;21.36;50.56;101656.25;5216558;28;20323;-68
2022/06/03 08:37:59;;;;;;;7.15;6.50;;;;;;;21.54;51.79;101660.41;5198203;28;20548;-68
2022/06/03 08:40:57;;;;;;;6.80;6.20;;;;;;;21.93;50.71;101667.31;5215553;28;20034;-69
2022/06/03 08:43:52;;;;;;;7.15;6.05;;;;;;;22.01;49.58;101657.41;5213726;28;20033;-68
2022/06/03 08:46:29;;;;;;;7.32;6.43;;;;;;;22.10;48.62;101656.25;5215472;28;20053;-68
2022/06/03 08:49:05;;;;;;;6.85;6.00;;;;;;;22.22;47.66;101650.47;5214039;28;20057;-69
2022/06/03 08:51:46;;;;;;;7.43;5.80;;;;;;;22.36;46.56;101657.63;5215749;28;20034;-69
2022/06/03 08:54:21;;;;;;;6.82;5.90;;;;;;;22.54;47.11;101663.38;5215052;28;20025;-69
2022/06/03 08:56:57;;;;;;;7.10;6.40;;;;;;;22.67;46.61;101668.03;5214652;28;20278;-69
2022/06/03 08:59:38;;;;;;;13.18;7.15;;;;;;;22.71;46.06;101660.47;5216663;28;20022;-68
2022/06/03 09:02:27;;;;;;;6.80;6.20;;;;;;;22.94;48.01;101661.13;5215187;28;20026;-67
2022/06/03 09:05:02;;;;;;;9.20;5.82;;;;;;;;;;5213371;28;20101;-68
2022/06/03 09:07:44;;;;;;;7.78;6.47;;;;;;;23.04;46.32;101658.97;5214886;28;20108;-68
2022/06/03 09:10:25;;;;;;;7.15;6.43;;;;;;;23.03;45.15;101660.00;5214302;28;20041;-68
2022/06/03 09:13:39;;;;;;;8.15;6.38;;;;;;;23.24;44.60;101658.31;5214175;28;20105;-67
2022/06/03 09:16:15;;;;;;;6.55;5.68;;;;;;;23.04;44.36;101664.31;5187583;28;20038;-68
2022/06/03 09:18:53;;;;;;;6.68;5.63;;;;;;;23.08;43.45;101653.25;5212119;28;20021;-68
2022/06/03 09:21:31;;;;;;;6.47;5.82;;;;;;;23.38;45.17;101659.22;5215566;28;20088;-67
2022/06/03 09:24:29;;;;;;;5.60;5.07;;;;;;;23.38;42.15;101661.91;5214320;28;20037;-68
2022/06/03 09:27:03;;;;;;;7.32;5.63;;;;;;;23.42;40.75;101663.16;5214629;28;20022;-68
2022/06/03 09:29:36;;;;;;;8.00;5.35;;;;;;;23.61;40.38;101662.47;5207340;28;20053;-68
2022/06/03 09:32:09;;;;;;;;;;;;;;;24.31;40.40;101660.56;5214267;28;20030;-68
2022/06/03 09:34:44;;;;;;;5.43;4.85;;;;;;;23.93;41.40;101655.66;5214874;28;19923;-68
2022/06/03 09:37:26;;;;;;;5.82;4.85;;;;;;;24.14;41.19;101649.38;5215752;28;20089;-68
2022/06/03 09:40:00;;;;;;;5.07;4.57;;;;;;;24.13;40.10;101652.25;5214993;28;20031;-68
2022/06/03 09:42:33;;;;;;;5.28;4.78;;;;;;;24.11;41.67;101640.94;5214186;28;20022;-68
2022/06/03 09:45:06;;;;;;;5.18;4.68;;;;;;;24.08;39.87;101650.19;5215426;28;20026;-68
2022/06/03 09:47:37;;;;;;;5.13;3.60;;;;;;;24.03;37.97;101642.75;5213217;28;20022;-68
2022/06/03 09:50:14;;;;;;;5.80;3.80;;;;;;;24.40;38.87;101646.00;5205519;28;20132;-68
2022/06/03 09:52:48;;;;;;;5.80;3.63;;;;;;;24.43;38.43;101648.25;5215499;28;20112;-67
2022/06/03 09:55:31;;;;;;;6.28;4.05;;;;;;;24.60;36.54;101640.69;5214207;28;20133;-67
2022/06/03 09:58:05;;;;;;;5.15;3.20;;;;;;;24.61;36.96;101642.31;5214716;28;20029;-68
2022/06/03 10:00:43;;;;;;;5.30;3.50;;;;;;;24.80;36.69;101638.03;5213180;28;20440;-67
2022/06/03 10:03:14;;;;;;;4.68;3.90;;;;;;;24.60;35.45;101626.47;5215139;28;20504;-68
2022/06/03 10:05:49;;;;;;;5.60;3.50;;;;;;;24.92;35.54;101627.50;5195552;28;20021;-68
2022/06/03 10:14:13;;;;;;;3.65;2.90;;;;;;;24.90;34.36;101638.44;5194128;28;20232;-68
2022/06/03 10:16:44;;;;;;;3.57;2.43;;;;;;;25.04;34.76;101627.72;5194557;28;20457;-68
2022/06/03 10:19:16;;;;;;;3.77;2.40;;;;;;;25.13;33.12;101631.88;5194097;28;20201;-68
2022/06/03 10:21:52;;;;;;;4.30;3.00;;;;;;;25.13;34.35;101626.53;5193183;28;20039;-68
2022/06/03 10:24:33;;;;;;;4.53;2.25;;;;;;;25.25;33.84;101608.75;5193799;28;20066;-68
2022/06/03 10:27:06;;;;;;;5.22;2.40;;;;;;;25.24;34.13;101615.16;5194611;28;20576;-68
2022/06/03 10:29:50;;;;;;;3.22;2.33;;;;;;;25.24;32.25;101607.94;5193723;28;20481;-68
2022/06/03 10:32:22;;;;;;;3.15;2.00;;;;;;;25.18;32.69;101602.56;5193344;28;20034;-68
2022/06/03 10:35:13;;;;;;;4.93;1.70;;;;;;;25.62;32.97;101593.81;5193784;28;20061;-68
2022/06/03 10:37:50;;;;;;;6.00;1.83;;;;;;;25.66;32.38;101600.41;5191118;28;20560;-67
2022/06/03 10:40:24;;;;;;;4.10;2.35;;;;;;;25.51;30.96;101607.88;5190208;28;20089;-68
2022/06/03 10:42:58;;;;;;;3.80;2.53;;;;;;;25.56;32.02;101594.66;5193770;28;20030;-67
2022/06/03 10:45:33;;;;;;;4.28;2.10;;;;;;;25.66;33.10;101597.72;5194406;28;20486;-68
2022/06/03 10:48:28;;;;;;;7.47;2.03;;;;;;;26.09;32.25;101599.84;5193582;28;20116;-68
2022/06/03 11:01:06;;;;;;;3.28;1.90;;;;;;;26.00;31.79;101601.13;5192914;28;20490;-68
2022/06/03 11:02:51;;;;;;;1.98;1.40;;;;;;;26.02;31.43;101598.22;5193645;28;20061;-68
2022/06/03 11:05:29;;;;;;;2.87;1.30;;;;;;;25.86;30.06;101596.84;5193920;28;20117;-68
2022/06/03 11:08:05;;;;;;;1.90;1.30;;;;;;;26.07;29.74;101598.41;5192296;28;20034;-68
2022/06/03 11:10:41;;;;;;;3.72;1.15;;;;;;;26.29;29.74;101586.31;5225030;28;20033;-68
2022/06/03 11:13:26;;;;;;;3.35;1.48;;;;;;;26.43;30.62;101579.78;5234281;28;20033;-69
2022/06/03 11:16:13;;;;;;;2.65;1.23;;;;;;;26.58;29.72;101584.06;5230714;28;20071;-70
2022/06/03 11:18:45;;;;;;;2.13;1.35;;;;;;;26.21;28.68;101586.53;5232623;28;20079;-69
2022/06/03 11:21:23;;;;;;;1.83;0.90;;;;;;;26.35;28.00;101584.59;5232191;28;20021;-69
2022/06/03 11:23:59;;;;;;;1.50;0.80;;;;;;;26.54;28.40;101580.97;5232576;28;20040;-69
2022/06/03 11:26:38;;;;;;;1.63;0.90;;;;;;;26.40;27.41;101574.88;5232762;28;20040;-69
2022/06/03 11:29:34;;;;;;;3.08;1.00;;;;;;;26.50;27.43;101576.28;5234079;28;20068;-70
2022/06/03 11:32:11;;;;;;;1.88;0.90;;;;;;;26.25;27.88;101585.06;5233850;28;20030;-68
2022/06/03 11:34:46;;;;;;;2.58;1.15;;;;;;;26.22;28.52;101568.59;5229887;28;20434;-69
2022/06/03 11:37:26;;;;;;;3.78;1.30;;;;;;;26.38;29.84;101576.94;5232279;28;20044;-69
2022/06/03 11:40:07;;;;;;;3.33;1.40;;;;;;;26.35;28.21;101569.31;5234160;28;20033;-69
2022/06/03 11:42:50;;;;;;;1.90;1.10;;;;;;;26.37;28.00;101579.84;5232266;28;20025;-68
2022/06/03 11:45:31;;;;;;;2.28;0.98;;;;;;;26.57;29.49;101568.97;5234204;28;20021;-68
2022/06/03 11:48:17;;;;;;;3.65;1.52;;;;;;;26.88;28.90;101579.66;5215025;28;20025;-69
2022/06/03 11:50:49;;;;;;;3.63;1.60;;;;;;;26.59;28.77;101577.63;5233364;28;20076;-69
2022/06/03 11:53:25;;;;;;;3.20;1.23;;;;;;;26.60;28.86;101580.13;5234009;28;20029;-68
2022/06/03 11:56:02;;;;;;;1.98;1.38;;;;;;;26.49;28.52;101580.81;5232910;28;20383;-68
2022/06/03 11:58:40;;;;;;;1.92;1.10;;;;;;;26.79;29.86;101585.56;5232605;28;20133;-69
2022/06/03 12:01:26;;;;;;;2.85;1.70;;;;;;;26.36;27.67;101586.25;5232724;28;20487;-68
2022/06/03 12:04:10;;;;;;;2.05;1.42;;;;;;;26.67;27.79;101585.44;5232014;28;20013;-68
2022/06/03 12:07:09;;;;;;;2.40;1.50;;;;;;;26.60;27.95;101585.50;5233284;28;20084;-67
2022/06/03 12:10:05;;;;;;;1.65;1.20;;;;;;;27.14;28.57;101581.31;5227408;28;20037;-67
2022/06/03 12:15:40;;;;;;;4.82;1.50;;;;;;;27.30;27.42;101571.84;5230838;28;20042;-68
2022/06/03 12:18:11;;;;;;;1.63;1.35;;;;;;;27.23;27.15;101568.41;5231565;28;20087;-68
2022/06/03 12:20:48;;;;;;;2.17;1.57;;;;;;;27.49;28.53;101567.28;5233424;28;20488;-68
2022/06/03 12:23:19;;;;;;;4.47;1.90;;;;;;;27.54;26.63;101564.75;5232670;28;20040;-68
2022/06/03 12:25:51;;;;;;;2.20;1.40;;;;;;;27.78;27.91;101564.91;5233303;28;20427;-68
2022/06/03 12:28:38;;;;;;;2.70;1.40;;;;;;;27.65;27.93;101565.84;5233397;28;20056;-67
2022/06/03 12:31:29;;;;;;;2.85;1.30;;;;;;;27.57;27.49;101552.69;5231723;28;20036;-70
2022/06/03 12:34:20;;;;;;;1.67;1.20;;;;;;;27.91;27.37;101551.25;5213318;28;20029;-67
2022/06/03 12:37:00;;;;;;;4.25;1.30;;;;;;;28.02;26.82;101550.47;5232804;28;20485;-68
2022/06/03 12:39:34;;;;;;;4.05;1.38;;;;;;;27.82;29.12;101549.94;5230309;28;20034;-67
2022/06/03 12:42:28;;;;;;;2.58;1.42;;;;;;;27.94;28.85;101537.34;5233139;28;20481;-67
2022/06/03 12:45:20;;;;;;;2.60;1.60;;;;;;;28.13;28.02;101551.56;5221920;28;20045;-68
2022/06/03 12:47:51;;;;;;;2.67;1.55;;;;;;;27.79;28.28;101559.28;5227319;28;20388;-68
2022/06/03 12:50:32;;;;;;;2.40;1.63;;;;;;;27.89;27.43;101556.88;5226056;28;20039;-68
2022/06/03 12:53:22;;;;;;;1.92;1.30;;;;;;;28.06;26.91;101548.16;5228335;28;20477;-68
2022/06/03 12:55:59;;;;;;;2.30;1.10;;;;;;;27.91;26.92;101547.75;5233642;28;20037;-68
2022/06/03 12:58:48;;;;;;;3.80;1.30;;;;;;;27.87;25.33;101547.38;5232833;28;20063;-68
2022/06/03 13:01:31;;;;;;;3.35;1.55;;;;;;;28.01;26.65;101538.06;5234398;28;20038;-68
2022/06/03 13:04:40;;;;;;;2.35;1.40;;;;;;;28.24;27.74;101531.09;5234182;28;20497;-69
2022/06/03 13:07:35;;;;;;;2.38;1.40;;;;;;;28.09;25.09;101532.34;5236637;28;20044;-68
2022/06/03 13:10:06;;;;;;;2.30;1.45;;;;;;;27.52;25.13;101528.34;5219126;28;20176;-68
2022/06/03 13:12:37;;;;;;;1.90;1.30;;;;;;;27.80;27.11;101535.88;5203418;28;20025;-68
2022/06/03 13:15:21;;;;;;;2.30;1.60;;;;;;;28.00;24.80;101527.53;5234722;28;20376;-68
2022/06/03 13:17:58;;;;;;;2.83;1.50;;;;;;;27.79;26.24;101535.03;5232497;28;20033;-68
2022/06/03 13:20:43;;;;;;;3.15;1.20;;;;;;;28.19;27.14;101525.59;5232200;28;20075;-69
2022/06/03 13:23:20;;;;;;;2.35;1.30;;;;;;;27.93;26.23;101532.19;5231677;28;20116;-68
2022/06/03 13:25:54;;;;;;;3.88;1.40;;;;;;;27.72;26.40;101523.50;5229234;28;20026;-68